Time;durP1;ratioP1;P1;durP2;ratioP2;P2;SDS_P1;SDS_P2;PMS_P1;PMS_P2;Temp;Humidity;BMP_temperature;BMP_pressure;BME280_temperature;BME280_humidity;BME280_pressure;Samples;Min_cycle;Max_cycle;Signal;HPM_P1;HPM_P2
2022/11/28 00:00:51;;;;;;;14.50;7.75;;;;;;;-143.48;95.99;118439.88;5032779;28;20034;-42
2022/11/28 00:03:17;;;;;;;12.85;7.85;;;;;;;-143.48;95.87;118439.88;5033069;28;20025;-43
2022/11/28 00:05:42;;;;;;;14.85;8.20;;;;;;;-143.48;95.99;118439.88;5032726;28;20539;-42
2022/11/28 00:08:07;;;;;;;12.88;7.93;;;;;;;-143.48;96.03;118439.88;5032646;28;20095;-43
2022/11/28 00:10:32;;;;;;;14.27;8.20;;;;;;;-143.48;96.00;118439.88;5048087;28;20112;-43
2022/11/28 00:12:58;;;;;;;17.48;8.48;;;;;;;-143.48;96.50;118439.88;5032515;28;20535;-42
2022/11/28 00:15:23;;;;;;;14.40;7.93;;;;;;;-143.48;96.62;118439.88;5034533;28;20061;-43
2022/11/28 00:17:48;;;;;;;14.07;7.55;;;;;;;-143.48;96.75;118439.88;5034629;28;20025;-42
2022/11/28 00:20:13;;;;;;;15.65;8.35;;;;;;;-143.48;96.88;118439.88;5049883;28;20040;-43
2022/11/28 00:22:39;;;;;;;21.00;8.77;;;;;;;-143.48;96.95;118439.88;5034022;28;20071;-43
2022/11/28 00:25:05;;;;;;;13.63;8.40;;;;;;;-143.48;97.44;118439.88;5034160;28;20132;-43
2022/11/28 00:27:33;;;;;;;16.40;8.68;;;;;;;-143.48;97.07;118439.88;5034439;28;20105;-42
2022/11/28 00:29:58;;;;;;;17.05;8.68;;;;;;;-143.48;96.84;118439.88;5034640;28;20050;-42
2022/11/28 00:32:24;;;;;;;17.27;9.40;;;;;;;-143.48;97.15;118439.88;5033853;28;20120;-42
2022/11/28 00:34:49;;;;;;;14.45;8.45;;;;;;;-143.48;96.93;118439.88;5034251;28;20461;-42
2022/11/28 00:37:14;;;;;;;15.50;8.95;;;;;;;-143.48;97.03;118439.88;5034522;28;20052;-42
2022/11/28 00:39:39;;;;;;;13.95;8.55;;;;;;;-143.48;97.09;118439.88;5049501;28;20060;-44
2022/11/28 00:42:05;;;;;;;14.40;7.93;;;;;;;-143.48;96.99;118439.88;5034380;28;20108;-42
2022/11/28 00:44:30;;;;;;;14.32;8.38;;;;;;;-143.48;97.34;118439.88;5034079;28;20416;-42
2022/11/28 00:46:55;;;;;;;17.40;8.57;;;;;;;-143.48;97.62;118439.88;5034066;28;20033;-42
2022/11/28 00:49:20;;;;;;;18.77;8.23;;;;;;;-143.48;97.80;118439.88;5034301;28;20078;-42
2022/11/28 00:51:46;;;;;;;15.52;8.50;;;;;;;-143.48;97.78;118439.88;5034311;28;20376;-42
2022/11/28 00:54:11;;;;;;;15.80;8.35;;;;;;;-143.48;98.36;118439.88;5034230;28;20155;-42
2022/11/28 00:56:38;;;;;;;14.25;8.60;;;;;;;-143.48;98.45;118439.88;5034125;28;20112;-42
2022/11/28 00:59:04;;;;;;;15.48;8.98;;;;;;;-143.48;98.69;118439.88;5034145;28;20032;-42
2022/11/28 01:01:34;;;;;;;15.73;9.20;;;;;;;-143.48;98.79;118439.88;5033856;28;20083;-42
2022/11/28 01:04:02;;;;;;;14.18;8.55;;;;;;;-143.48;98.68;118439.88;5033713;28;20048;-42
2022/11/28 01:06:27;;;;;;;16.05;8.30;;;;;;;-143.48;98.76;118439.88;5033742;28;20021;-42
2022/11/28 01:08:52;;;;;;;15.85;8.93;;;;;;;-143.48;98.98;118439.88;5033753;28;20033;-42
2022/11/28 01:11:18;;;;;;;14.48;8.63;;;;;;;-143.48;98.96;118439.88;5034189;28;20368;-42
2022/11/28 01:13:44;;;;;;;14.25;8.95;;;;;;;-143.48;99.15;118439.88;5033617;28;20112;-43
2022/11/28 01:16:09;;;;;;;14.80;8.70;;;;;;;-143.48;99.20;118439.88;5033814;28;20021;-42
2022/11/28 01:18:36;;;;;;;15.02;9.07;;;;;;;-143.48;98.73;118439.88;5033469;28;20096;-43
2022/11/28 01:21:01;;;;;;;18.27;8.82;;;;;;;-143.48;99.12;118439.88;5033519;28;20048;-42
2022/11/28 01:23:27;;;;;;;13.82;9.30;;;;;;;-143.48;99.44;118439.88;5033344;28;20461;-42
2022/11/28 01:25:52;;;;;;;20.27;9.98;;;;;;;-143.48;99.40;118439.88;5033650;28;20029;-42
2022/11/28 01:28:17;;;;;;;15.65;9.32;;;;;;;-143.48;99.54;118439.88;5033422;28;20017;-42
2022/11/28 01:30:43;;;;;;;16.23;9.13;;;;;;;-143.48;99.38;118439.88;5033227;28;20057;-42
2022/11/28 01:33:08;;;;;;;13.52;9.18;;;;;;;-143.48;99.17;118439.88;5033427;28;20029;-42
2022/11/28 01:35:33;;;;;;;15.32;9.32;;;;;;;-143.48;99.18;118439.88;5033602;28;20025;-43
2022/11/28 01:37:58;;;;;;;16.08;8.90;;;;;;;-143.48;99.20;118439.88;5033252;28;20029;-43
2022/11/28 01:40:24;;;;;;;13.98;9.27;;;;;;;-143.48;99.50;118439.88;5033294;28;20486;-42
2022/11/28 01:42:49;;;;;;;14.80;9.10;;;;;;;-143.48;99.52;118439.88;5033737;28;20029;-42
2022/11/28 01:45:24;;;;;;;13.68;9.25;;;;;;;-143.48;99.61;118439.88;5033415;28;20030;-42
2022/11/28 01:47:52;;;;;;;15.18;10.38;;;;;;;-143.48;99.68;118439.88;5033255;28;20036;-42
2022/11/28 01:50:19;;;;;;;15.43;9.30;;;;;;;-143.48;100.00;118439.88;5032047;28;20017;-42
2022/11/28 01:52:48;;;;;;;14.55;9.43;;;;;;;-143.48;99.68;118439.88;5033194;28;20025;-42
2022/11/28 01:55:18;;;;;;;13.55;9.05;;;;;;;-143.48;99.88;118439.88;5033126;28;20021;-43
2022/11/28 01:57:43;;;;;;;11.50;8.73;;;;;;;-143.48;99.85;118439.88;5033906;28;20056;-42
2022/11/28 02:00:16;;;;;;;13.30;8.55;;;;;;;-143.48;99.52;118439.88;5033060;28;20021;-42
2022/11/28 02:02:46;;;;;;;12.75;8.93;;;;;;;-143.48;99.80;118439.88;5032912;28;20167;-42
2022/11/28 02:05:13;;;;;;;12.98;8.98;;;;;;;-143.48;99.93;118439.88;5032904;28;20026;-42
2022/11/28 02:07:38;;;;;;;14.30;8.73;;;;;;;-143.48;100.00;118439.88;5033022;28;20044;-42
2022/11/28 02:10:08;;;;;;;13.77;9.10;;;;;;;-143.48;99.70;118439.88;5032916;28;20473;-42
2022/11/28 02:12:39;;;;;;;11.32;8.40;;;;;;;-143.48;100.00;118439.88;5032931;28;20060;-43
2022/11/28 02:15:31;;;;;;;12.52;9.05;;;;;;;-143.48;100.00;118439.88;5033211;28;20032;-42
2022/11/28 02:18:05;;;;;;;13.43;8.68;;;;;;;-143.48;100.00;118439.88;5033099;28;20377;-42
2022/11/28 02:21:01;;;;;;;10.43;8.05;;;;;;;-143.48;100.00;118439.88;5033131;28;20429;-42
2022/11/28 02:23:52;;;;;;;10.35;7.65;;;;;;;-143.48;100.00;118439.88;5033118;28;20352;-42
2022/11/28 02:26:53;;;;;;;9.10;7.22;;;;;;;-143.48;100.00;118439.88;5033042;28;20025;-42
2022/11/28 02:29:27;;;;;;;10.77;7.57;;;;;;;-143.48;100.00;118439.88;5031413;28;20144;-41
2022/11/28 02:32:11;;;;;;;11.48;7.95;;;;;;;-143.48;100.00;118439.88;5033031;28;20025;-42
2022/11/28 02:34:39;;;;;;;9.68;7.65;;;;;;;-143.48;100.00;118439.88;5033322;28;20477;-42
2022/11/28 02:37:36;;;;;;;9.93;7.30;;;;;;;-143.48;100.00;118439.88;5032947;28;20127;-42
2022/11/28 02:40:13;;;;;;;9.38;6.97;;;;;;;-143.48;100.00;118439.88;5031565;28;20037;-41
2022/11/28 02:42:47;;;;;;;9.63;6.88;;;;;;;-143.48;100.00;118439.88;5032948;28;20080;-41
2022/11/28 02:45:22;;;;;;;10.02;7.15;;;;;;;-143.48;100.00;118439.88;5033051;28;20033;-42
2022/11/28 02:47:57;;;;;;;9.88;7.00;;;;;;;-143.48;100.00;118439.88;5032535;28;20423;-41
2022/11/28 02:50:28;;;;;;;9.35;7.25;;;;;;;-143.48;100.00;118439.88;5032996;28;20025;-41
2022/11/28 02:53:06;;;;;;;8.65;6.30;;;;;;;-143.48;99.89;118439.88;5032621;28;20030;-42
2022/11/28 02:55:32;;;;;;;8.05;6.75;;;;;;;-143.48;100.00;118439.88;5034668;28;20533;-41
2022/11/28 02:57:57;;;;;;;8.68;6.70;;;;;;;-143.48;100.00;118439.88;5036137;28;20057;-42
2022/11/28 03:00:31;;;;;;;8.98;6.70;;;;;;;-143.48;99.93;118439.88;5036411;28;20060;-42
2022/11/28 03:03:18;;;;;;;8.63;6.47;;;;;;;-143.48;99.80;118439.88;5036076;28;20434;-43
2022/11/28 03:06:08;;;;;;;7.93;6.50;;;;;;;-143.48;99.86;118439.88;5035958;28;20033;-42
2022/11/28 03:08:36;;;;;;;9.35;6.97;;;;;;;-143.48;100.00;118439.88;5036241;28;20079;-42
2022/11/28 03:11:18;;;;;;;7.55;6.47;;;;;;;-143.48;99.90;118439.88;5035991;28;20025;-42
2022/11/28 03:14:01;;;;;;;8.63;6.63;;;;;;;-143.48;99.81;118439.88;5035900;28;20472;-42
2022/11/28 03:16:38;;;;;;;9.43;7.07;;;;;;;-143.48;99.79;118439.88;5035751;28;20049;-42
2022/11/28 03:19:21;;;;;;;9.52;7.65;;;;;;;-143.48;99.81;118439.88;5035757;28;20383;-42
2022/11/28 03:21:51;;;;;;;8.87;7.13;;;;;;;-143.48;100.00;118439.88;5035749;28;20491;-41
2022/11/28 03:24:45;;;;;;;10.20;7.93;;;;;;;-143.48;99.95;118439.88;5035873;28;20769;-41
2022/11/28 03:27:23;;;;;;;9.82;7.72;;;;;;;-143.48;99.67;118439.88;5032417;28;20117;-41
2022/11/28 03:29:53;;;;;;;11.48;8.38;;;;;;;-143.48;99.46;118439.88;5035672;28;20053;-41
2022/11/28 03:32:29;;;;;;;10.55;8.07;;;;;;;-143.48;99.48;118439.88;5035568;28;20033;-41
2022/11/28 03:35:09;;;;;;;9.65;8.18;;;;;;;-143.48;99.88;118439.88;5035525;28;20398;-41
2022/11/28 03:37:40;;;;;;;10.70;8.48;;;;;;;-143.48;99.83;118439.88;5035967;28;20025;-42
2022/11/28 03:40:11;;;;;;;10.77;8.75;;;;;;;-143.48;99.69;118439.88;5035408;28;20029;-42
2022/11/28 03:42:42;;;;;;;12.23;9.05;;;;;;;-143.48;99.90;118439.88;5035311;28;20080;-41
2022/11/28 03:45:12;;;;;;;13.77;9.32;;;;;;;-143.48;99.94;118439.88;5035510;28;20029;-41
2022/11/28 03:47:43;;;;;;;12.35;9.60;;;;;;;-143.48;99.73;118439.88;5035494;28;20372;-42
2022/11/28 03:50:16;;;;;;;11.95;9.50;;;;;;;-143.48;100.00;118439.88;5035207;28;20480;-41
2022/11/28 03:52:49;;;;;;;14.95;10.05;;;;;;;-143.48;99.68;118439.88;5035928;28;20017;-42
2022/11/28 03:55:26;;;;;;;14.18;10.85;;;;;;;-143.48;99.73;118439.88;5035172;28;20021;-42
2022/11/28 03:58:13;;;;;;;14.38;10.80;;;;;;;-143.48;99.84;118439.88;5035266;28;20517;-42
2022/11/28 04:00:51;;;;;;;17.63;10.80;;;;;;;-143.48;100.00;118439.88;5035196;28;20468;-43
2022/11/28 04:03:37;;;;;;;15.38;10.90;;;;;;;-143.48;99.79;118439.88;5034970;28;20025;-42
2022/11/28 04:06:24;;;;;;;15.98;10.95;;;;;;;-143.48;99.59;118439.88;5034616;28;20033;-41
2022/11/28 04:09:09;;;;;;;16.15;11.98;;;;;;;-143.48;99.74;118439.88;5035128;28;20167;-41
2022/11/28 04:11:43;;;;;;;21.90;12.30;;;;;;;-143.48;99.71;118439.88;5035318;28;20033;-41
2022/11/28 04:14:20;;;;;;;18.50;11.88;;;;;;;-143.48;99.72;118439.88;5035272;28;20036;-42
2022/11/28 04:17:02;;;;;;;17.80;13.25;;;;;;;-143.48;99.96;118439.88;5034712;28;20476;-41
2022/11/28 04:19:33;;;;;;;17.90;12.05;;;;;;;-143.48;100.00;118439.88;5034744;28;20036;-41
2022/11/28 04:22:23;;;;;;;21.85;13.57;;;;;;;-143.48;100.00;118439.88;5034623;28;20083;-41
2022/11/28 04:24:56;;;;;;;19.17;13.15;;;;;;;-143.48;100.00;118439.88;5034861;28;20397;-42
2022/11/28 04:27:27;;;;;;;22.17;13.90;;;;;;;-143.48;99.65;118439.88;5035119;28;20431;-41
2022/11/28 04:29:55;;;;;;;22.02;13.73;;;;;;;-143.48;100.00;118439.88;5034594;28;20056;-41
2022/11/28 04:32:23;;;;;;;19.27;13.43;;;;;;;-143.48;100.00;118439.88;5034510;28;20025;-41
2022/11/28 04:34:58;;;;;;;26.85;15.63;;;;;;;-143.48;100.00;118439.88;5034584;28;20440;-42
2022/11/28 04:37:27;;;;;;;22.02;14.18;;;;;;;-143.48;99.96;118439.88;5034359;28;20025;-42
2022/11/28 04:39:54;;;;;;;21.58;14.15;;;;;;;-143.48;100.00;118439.88;5049753;28;20029;-41
2022/11/28 04:42:25;;;;;;;22.98;15.60;;;;;;;-143.48;100.00;118439.88;5034214;28;20042;-42
2022/11/28 04:44:59;;;;;;;22.52;14.75;;;;;;;-143.48;99.81;118439.88;5034524;28;20030;-42
2022/11/28 04:47:25;;;;;;;22.10;14.15;;;;;;;-143.48;99.73;118439.88;5034052;28;20384;-41
2022/11/28 04:49:52;;;;;;;22.40;14.25;;;;;;;-143.48;99.84;118439.88;5033994;28;20029;-41
2022/11/28 04:52:39;;;;;;;23.38;14.55;;;;;;;-143.48;99.38;118439.88;5034006;28;20035;-42
2022/11/28 04:55:04;;;;;;;23.20;14.55;;;;;;;-143.48;99.89;118439.88;5034423;28;20026;-42
2022/11/28 04:57:37;;;;;;;23.58;15.02;;;;;;;-143.48;99.50;118439.88;5034215;28;20040;-43
2022/11/28 05:00:08;;;;;;;24.25;14.70;;;;;;;-143.48;99.23;118439.88;5034172;28;20021;-42
2022/11/28 05:02:34;;;;;;;28.63;14.90;;;;;;;-143.48;99.48;118439.88;5033795;28;20036;-42
2022/11/28 05:05:00;;;;;;;24.50;14.32;;;;;;;-143.48;99.21;118439.88;5034306;28;20029;-42
2022/11/28 05:07:25;;;;;;;26.80;15.02;;;;;;;-143.48;99.34;118439.88;5033738;28;20116;-41
2022/11/28 05:09:51;;;;;;;25.42;15.45;;;;;;;-143.48;99.20;118439.88;5034006;28;20124;-41
2022/11/28 05:12:16;;;;;;;25.95;15.40;;;;;;;-143.48;99.45;118439.88;5033972;28;20068;-41
2022/11/28 05:14:41;;;;;;;23.23;15.02;;;;;;;-143.48;99.17;118439.88;5033579;28;20038;-42
2022/11/28 05:17:09;;;;;;;27.58;15.38;;;;;;;-143.48;99.37;118439.88;5033566;28;20040;-42
2022/11/28 05:19:35;;;;;;;26.75;14.60;;;;;;;-143.48;98.96;118439.88;5033379;28;20064;-41
2022/11/28 05:22:00;;;;;;;24.80;14.43;;;;;;;-143.48;98.78;118439.88;5033523;28;20321;-42
2022/11/28 05:24:25;;;;;;;23.35;14.43;;;;;;;-143.48;99.07;118439.88;5033400;28;20029;-42
2022/11/28 05:26:50;;;;;;;23.05;13.60;;;;;;;-143.48;98.64;118439.88;5033533;28;20022;-42
2022/11/28 05:29:16;;;;;;;23.55;14.13;;;;;;;-143.48;98.87;118439.88;5033954;28;20053;-41
2022/11/28 05:31:41;;;;;;;23.85;14.13;;;;;;;-143.48;99.15;118439.88;5033454;28;20379;-42
2022/11/28 05:34:07;;;;;;;23.77;14.82;;;;;;;-143.48;98.81;118439.88;5033657;28;20025;-42
2022/11/28 05:36:32;;;;;;;21.65;14.18;;;;;;;-143.48;98.76;118439.88;5033381;28;20104;-41
2022/11/28 05:38:57;;;;;;;21.15;13.48;;;;;;;-143.48;98.91;118439.88;5048858;28;20104;-41
2022/11/28 05:41:28;;;;;;;24.27;14.70;;;;;;;-143.48;98.86;118439.88;5033916;28;20456;-42
2022/11/28 05:43:56;;;;;;;21.45;13.68;;;;;;;-143.48;99.27;118439.88;5033238;28;20117;-42
2022/11/28 05:46:21;;;;;;;23.33;13.65;;;;;;;-143.48;99.54;118439.88;5033126;28;20029;-42
2022/11/28 05:48:47;;;;;;;22.17;13.07;;;;;;;-143.48;99.06;118439.88;5033529;28;20021;-42
2022/11/28 05:51:12;;;;;;;20.80;13.27;;;;;;;-143.48;98.76;118439.88;5033446;28;20025;-42
2022/11/28 05:53:37;;;;;;;22.30;12.23;;;;;;;-143.48;98.67;118439.88;5033368;28;20029;-42
2022/11/28 05:56:13;;;;;;;23.98;13.13;;;;;;;-143.48;99.38;118439.88;5033193;28;20503;-42
2022/11/28 05:58:38;;;;;;;24.40;13.13;;;;;;;-143.48;99.19;118439.88;5033108;28;20029;-42
2022/11/28 06:01:22;;;;;;;22.30;12.75;;;;;;;-143.48;98.96;118439.88;5033091;28;20547;-42
2022/11/28 06:03:47;;;;;;;20.77;13.27;;;;;;;-143.48;98.89;118439.88;5033060;28;20515;-42
2022/11/28 06:06:16;;;;;;;26.60;13.85;;;;;;;-143.48;98.82;118439.88;5033296;28;20061;-41
2022/11/28 06:08:42;;;;;;;21.58;13.50;;;;;;;-143.48;98.99;118439.88;5033305;28;20029;-42
2022/11/28 06:11:10;;;;;;;21.00;13.35;;;;;;;-143.48;98.71;118439.88;5032948;28;20352;-43
2022/11/28 06:13:36;;;;;;;25.15;13.75;;;;;;;-143.48;98.63;118439.88;5032871;28;20032;-42
2022/11/28 06:16:05;;;;;;;22.02;14.18;;;;;;;-143.48;99.07;118439.88;5033286;28;20021;-43
2022/11/28 06:18:30;;;;;;;21.63;13.25;;;;;;;-143.48;99.00;118439.88;5031590;28;20021;-42
2022/11/28 06:20:59;;;;;;;26.98;14.07;;;;;;;-143.48;99.25;118439.88;5033228;28;20025;-41
2022/11/28 06:23:25;;;;;;;23.38;13.25;;;;;;;-143.48;99.53;118439.88;5033436;28;20025;-42
2022/11/28 06:25:50;;;;;;;21.17;12.82;;;;;;;-143.48;98.83;118439.88;5031482;28;20348;-42
2022/11/28 06:28:15;;;;;;;24.33;13.82;;;;;;;-143.48;99.32;118439.88;5033070;28;20026;-42
2022/11/28 06:30:42;;;;;;;23.02;14.23;;;;;;;-143.48;98.78;118439.88;5035071;28;20480;-42
2022/11/28 06:33:07;;;;;;;24.55;13.43;;;;;;;-143.48;98.72;118439.88;5036644;28;20033;-42
2022/11/28 06:35:32;;;;;;;22.73;13.65;;;;;;;-143.48;98.50;118439.88;5036483;28;20380;-42
2022/11/28 06:37:58;;;;;;;24.42;14.18;;;;;;;-143.48;98.19;118439.88;5035108;28;20112;-43
2022/11/28 06:40:23;;;;;;;22.58;13.48;;;;;;;-143.48;98.88;118439.88;5036357;28;20037;-42
2022/11/28 06:42:49;;;;;;;23.63;13.82;;;;;;;-143.48;98.55;118439.88;5036668;28;20025;-42
2022/11/28 06:45:15;;;;;;;23.00;13.60;;;;;;;-143.48;98.16;118439.88;5036495;28;20089;-42
2022/11/28 06:47:40;;;;;;;22.58;14.20;;;;;;;-143.48;98.50;118439.88;5036531;28;20446;-41
2022/11/28 06:50:08;;;;;;;22.52;13.35;;;;;;;-143.48;98.45;118439.88;5036250;28;20100;-42
2022/11/28 06:52:33;;;;;;;26.85;14.35;;;;;;;-143.48;98.37;118439.88;5036555;28;20033;-41
2022/11/28 06:54:59;;;;;;;22.35;14.27;;;;;;;-143.48;98.17;118439.88;5036171;28;20535;-42
2022/11/28 06:57:24;;;;;;;22.33;13.90;;;;;;;-143.48;97.99;118439.88;5034826;28;20065;-42
2022/11/28 06:59:49;;;;;;;22.92;13.18;;;;;;;-143.48;98.59;118439.88;5036275;28;20018;-42
2022/11/28 07:02:15;;;;;;;23.33;13.93;;;;;;;-143.48;98.65;118439.88;5036274;28;20036;-43
2022/11/28 07:04:40;;;;;;;24.73;13.95;;;;;;;-143.48;98.71;118439.88;5036023;28;20033;-42
2022/11/28 07:07:05;;;;;;;23.77;14.23;;;;;;;-143.48;98.68;118439.88;5035918;28;20063;-42
2022/11/28 07:09:31;;;;;;;20.27;13.35;;;;;;;-143.48;98.88;118439.88;5036125;28;20025;-42
2022/11/28 07:11:56;;;;;;;24.08;14.15;;;;;;;-143.48;98.44;118439.88;5034579;28;20021;-43
2022/11/28 07:14:23;;;;;;;22.27;13.98;;;;;;;-143.48;98.07;118439.88;5036080;28;20026;-42
2022/11/28 07:16:49;;;;;;;21.50;13.38;;;;;;;-143.48;97.84;118439.88;5034189;28;20030;-42
2022/11/28 07:19:15;;;;;;;27.08;14.25;;;;;;;-143.48;98.48;118439.88;5035563;28;20032;-42
2022/11/28 07:21:40;;;;;;;22.00;14.55;;;;;;;-143.48;98.43;118439.88;5035444;28;20033;-42
2022/11/28 07:24:06;;;;;;;28.67;15.00;;;;;;;-143.48;98.12;118439.88;5035759;28;20035;-42
2022/11/28 07:26:31;;;;;;;28.35;15.30;;;;;;;-143.48;98.26;118439.88;5035354;28;20483;-42
2022/11/28 07:28:58;;;;;;;28.85;15.70;;;;;;;-143.48;98.68;118439.88;5035333;28;20383;-43
2022/11/28 07:31:30;;;;;;;29.83;15.70;;;;;;;-143.48;98.87;118439.88;5035610;28;20031;-42
2022/11/28 07:33:56;;;;;;;32.83;16.42;;;;;;;-143.48;98.99;118439.88;5035618;28;20028;-43
2022/11/28 07:36:25;;;;;;;31.38;16.50;;;;;;;-143.48;98.58;118439.88;5035379;28;20027;-43
2022/11/28 07:38:53;;;;;;;28.92;16.55;;;;;;;-143.48;98.99;118439.88;5035760;28;20116;-42
2022/11/28 07:41:18;;;;;;;29.50;17.02;;;;;;;-143.48;98.71;118439.88;5035387;28;20026;-41
2022/11/28 07:43:46;;;;;;;33.50;17.27;;;;;;;-143.48;98.62;118439.88;5035617;28;20091;-42
2022/11/28 07:46:14;;;;;;;31.85;16.52;;;;;;;-143.48;98.14;118439.88;5035044;28;20029;-43
2022/11/28 07:48:39;;;;;;;32.55;16.58;;;;;;;-143.48;98.47;118439.88;5035034;28;20030;-42
2022/11/28 07:51:10;;;;;;;31.85;16.15;;;;;;;-143.48;98.70;118439.88;5035015;28;20029;-42
2022/11/28 07:53:38;;;;;;;30.30;16.13;;;;;;;-143.48;98.89;118439.88;5033616;28;20121;-42
2022/11/28 07:56:05;;;;;;;35.47;17.50;;;;;;;-143.48;98.71;118439.88;5035041;28;20100;-42
2022/11/28 07:58:32;;;;;;;37.90;17.40;;;;;;;-143.48;98.93;118439.88;5035117;28;20044;-43
2022/11/28 08:00:58;;;;;;;32.88;16.90;;;;;;;-143.48;98.68;118439.88;5034991;28;20053;-42
2022/11/28 08:03:23;;;;;;;32.55;16.83;;;;;;;-143.48;98.16;118439.88;5034799;28;20036;-42
2022/11/28 08:05:49;;;;;;;30.20;15.48;;;;;;;-143.48;98.38;118439.88;5034538;28;20025;-42
2022/11/28 08:08:18;;;;;;;31.65;17.00;;;;;;;-143.48;98.36;118439.88;5034878;28;20029;-42
2022/11/28 08:10:44;;;;;;;30.08;15.93;;;;;;;-143.48;98.75;118439.88;5035161;28;20063;-42
2022/11/28 08:13:10;;;;;;;34.58;16.85;;;;;;;-143.48;98.21;118439.88;5034468;28;20526;-42
2022/11/28 08:15:36;;;;;;;33.40;16.70;;;;;;;-143.48;98.36;118439.88;5034158;28;20049;-42
2022/11/28 08:18:02;;;;;;;34.15;16.40;;;;;;;-143.48;98.55;118439.88;5034432;28;20404;-42
2022/11/28 08:20:27;;;;;;;34.65;17.10;;;;;;;-143.48;98.37;118439.88;5033239;28;20025;-42
2022/11/28 08:22:53;;;;;;;31.10;16.27;;;;;;;-143.48;98.20;118439.88;5034513;28;20080;-42
2022/11/28 08:25:18;;;;;;;33.85;16.85;;;;;;;-143.48;98.49;118439.88;5034405;28;20036;-42
2022/11/28 08:27:43;;;;;;;36.65;17.10;;;;;;;-143.48;98.52;118439.88;5033239;28;20123;-42
2022/11/28 08:30:09;;;;;;;35.78;17.27;;;;;;;-143.48;98.41;118439.88;5033184;28;20494;-42
2022/11/28 08:32:34;;;;;;;37.05;17.25;;;;;;;-143.48;98.10;118439.88;5033455;28;20080;-42
2022/11/28 08:34:59;;;;;;;39.53;17.88;;;;;;;-143.48;98.41;118439.88;5032381;28;20017;-42
2022/11/28 08:37:26;;;;;;;41.65;18.70;;;;;;;-143.48;98.45;118439.88;5033688;28;20031;-42
2022/11/28 08:39:51;;;;;;;42.38;18.70;;;;;;;-143.48;98.45;118439.88;5033429;28;20040;-42
2022/11/28 08:42:17;;;;;;;39.25;18.67;;;;;;;-143.48;98.67;118439.88;5033550;28;20022;-42
2022/11/28 08:44:42;;;;;;;38.55;18.95;;;;;;;-143.48;98.06;118439.88;5033779;28;20025;-42
2022/11/28 08:47:07;;;;;;;44.85;19.60;;;;;;;-143.48;98.33;118439.88;5033650;28;20028;-43
2022/11/28 08:49:35;;;;;;;41.47;19.20;;;;;;;-143.48;99.26;118439.88;5033112;28;20396;-42
2022/11/28 08:52:02;;;;;;;44.05;19.60;;;;;;;-143.48;98.95;118439.88;5032057;28;20025;-42
2022/11/28 08:54:27;;;;;;;50.78;20.30;;;;;;;-143.48;98.76;118439.88;5032121;28;20357;-42
2022/11/28 08:56:52;;;;;;;47.33;20.08;;;;;;;-143.48;98.68;118439.88;5032163;28;20029;-43
2022/11/28 08:59:18;;;;;;;47.40;19.73;;;;;;;-143.48;98.94;118439.88;5032545;28;20044;-42
2022/11/28 09:01:43;;;;;;;39.10;18.23;;;;;;;-143.48;98.37;118439.88;5033248;28;20028;-41
2022/11/28 09:04:08;;;;;;;42.67;20.05;;;;;;;-143.48;98.55;118439.88;5033301;28;20033;-42
2022/11/28 09:06:33;;;;;;;47.95;20.15;;;;;;;-143.48;98.93;118439.88;5033501;28;20489;-42
2022/11/28 09:09:00;;;;;;;44.15;19.83;;;;;;;-143.48;99.08;118439.88;5033636;28;20045;-42
2022/11/28 09:11:26;;;;;;;47.78;20.25;;;;;;;-143.48;99.34;118439.88;5033910;28;20071;-42
2022/11/28 09:13:51;;;;;;;49.25;20.33;;;;;;;-143.48;99.38;118439.88;5033945;28;20549;-42
2022/11/28 09:16:17;;;;;;;53.72;20.77;;;;;;;-143.48;99.39;118439.88;5033608;28;20453;-43
2022/11/28 09:18:42;;;;;;;50.05;19.83;;;;;;;-143.48;99.61;118439.88;5033869;28;20025;-43
2022/11/28 09:21:10;;;;;;;52.67;20.92;;;;;;;-143.48;99.86;118439.88;5033585;28;20022;-42
2022/11/28 09:23:37;;;;;;;52.85;20.33;;;;;;;-143.48;99.71;118439.88;5032929;28;20035;-42
2022/11/28 09:26:08;;;;;;;50.33;20.60;;;;;;;-143.48;99.59;118439.88;5033469;28;20544;-49
2022/11/28 09:28:33;;;;;;;53.60;21.42;;;;;;;-143.48;99.45;118439.88;5033519;28;20533;-43
2022/11/28 09:31:00;;;;;;;48.55;20.95;;;;;;;-143.48;99.24;118439.88;5033666;28;20049;-42
2022/11/28 09:33:25;;;;;;;50.95;20.85;;;;;;;-143.48;98.98;118439.88;5033221;28;20100;-44
2022/11/28 09:35:51;;;;;;;51.70;21.50;;;;;;;-143.48;99.11;118439.88;5033293;28;20117;-42
2022/11/28 09:38:16;;;;;;;50.47;20.50;;;;;;;-143.48;98.96;118439.88;5032642;28;20129;-42
2022/11/28 09:40:43;;;;;;;52.75;19.85;;;;;;;-143.48;98.97;118439.88;5032865;28;20104;-43
2022/11/28 09:43:27;;;;;;;50.17;20.52;;;;;;;-143.48;98.64;118439.88;5033539;28;20083;-41
2022/11/28 09:45:54;;;;;;;53.40;20.58;;;;;;;-143.48;98.37;118439.88;5033199;28;20033;-41
2022/11/28 09:48:32;;;;;;;47.58;19.60;;;;;;;-143.48;98.48;118439.88;5033013;28;20376;-42
2022/11/28 09:51:13;;;;;;;51.35;19.88;;;;;;;-143.48;98.40;118439.88;5032991;28;20104;-43
2022/11/28 09:53:54;;;;;;;59.75;20.25;;;;;;;-143.48;98.52;118439.88;5033261;28;20021;-42
2022/11/28 09:56:21;;;;;;;52.83;20.25;;;;;;;-143.48;97.69;118439.88;5033410;28;20037;-42
2022/11/28 09:59:01;;;;;;;58.88;21.70;;;;;;;-143.48;98.33;118439.88;5033163;28;20080;-42
2022/11/28 10:01:48;;;;;;;53.47;20.38;;;;;;;-143.48;98.46;118439.88;5033285;28;20530;-45
2022/11/28 10:04:41;;;;;;;55.08;20.95;;;;;;;-143.48;97.96;118439.88;5033197;28;20037;-42
2022/11/28 10:07:20;;;;;;;53.83;20.40;;;;;;;-143.48;98.06;118439.88;5037439;28;20075;-42
2022/11/28 10:10:24;;;;;;;59.55;20.95;;;;;;;-143.48;98.16;118439.88;5037278;28;20116;-42
2022/11/28 10:13:17;;;;;;;57.17;20.77;;;;;;;-143.48;99.00;118439.88;5034012;28;20033;-41
2022/11/28 10:16:10;;;;;;;60.17;21.33;;;;;;;-143.48;99.57;118439.88;5036519;28;20014;-43
2022/11/28 10:18:49;;;;;;;58.75;22.15;;;;;;;-143.48;99.38;118439.88;5036838;28;20272;-41
2022/11/28 10:21:24;;;;;;;70.72;22.15;;;;;;;-143.48;99.61;118439.88;5037358;28;20072;-42
2022/11/28 10:23:53;;;;;;;60.03;22.30;;;;;;;-143.48;99.58;118439.88;5037107;28;20025;-42
2022/11/28 10:26:28;;;;;;;61.80;22.70;;;;;;;-143.48;99.35;118439.88;5037171;28;20030;-42
2022/11/28 10:28:57;;;;;;;61.05;21.55;;;;;;;-143.48;99.12;118439.88;5036905;28;20025;-41
2022/11/28 10:31:31;;;;;;;64.95;22.60;;;;;;;-143.48;99.04;118439.88;5036677;28;20032;-42
2022/11/28 10:34:15;;;;;;;64.28;23.23;;;;;;;-143.48;98.55;118439.88;5036593;28;20021;-43
2022/11/28 10:36:48;;;;;;;61.63;22.63;;;;;;;-143.48;98.43;118439.88;5035244;28;20091;-42
2022/11/28 10:39:14;;;;;;;62.20;22.83;;;;;;;-143.48;98.25;118439.88;5036600;28;20032;-41
2022/11/28 10:42:11;;;;;;;71.00;24.33;;;;;;;-143.48;98.12;118439.88;5036825;28;20017;-42
2022/11/28 10:45:26;;;;;;;59.50;22.13;;;;;;;-143.48;98.03;118439.88;5036456;28;20068;-42
2022/11/28 10:48:30;;;;;;;59.95;22.10;;;;;;;-143.48;97.89;118439.88;5012801;28;20112;-42
2022/11/28 10:51:29;;;;;;;69.13;23.58;;;;;;;-143.48;97.65;118439.88;5024226;28;20048;-42
2022/11/28 10:54:12;;;;;;;59.42;22.35;;;;;;;-143.48;97.73;118439.88;5036529;28;20102;-42
2022/11/28 10:56:53;;;;;;;68.65;23.52;;;;;;;-143.48;97.73;118439.88;5035797;28;20097;-41
2022/11/28 10:59:46;;;;;;;66.07;23.17;;;;;;;-143.48;97.52;118439.88;5036199;28;20033;-43
2022/11/28 11:02:36;;;;;;;61.80;22.42;;;;;;;-143.48;97.11;118439.88;5036198;28;20061;-43
2022/11/28 11:05:03;;;;;;;56.28;21.45;;;;;;;-143.48;97.27;118439.88;5036069;28;20080;-41
2022/11/28 11:07:30;;;;;;;63.80;22.45;;;;;;;-143.48;96.87;118439.88;5036348;28;20021;-42
2022/11/28 11:10:13;;;;;;;62.08;23.02;;;;;;;-143.48;97.95;118439.88;5035847;28;20033;-41
2022/11/28 11:12:39;;;;;;;61.83;22.30;;;;;;;-143.48;97.46;118439.88;5036277;28;20121;-43